Time;durP1;ratioP1;P1;durP2;ratioP2;P2;SDS_P1;SDS_P2;PMS_P1;PMS_P2;Temp;Humidity;BMP_temperature;BMP_pressure;BME280_temperature;BME280_humidity;BME280_pressure;Samples;Min_cycle;Max_cycle;Signal;HPM_P1;HPM_P2
2020/12/24 00:00:16;;;;;;;6.82;5.30;;;;;;;10.13;77.56;99897.75;691276;28;45271;-63
2020/12/24 00:00:37;;;;;;;5.72;5.07;;;;;;;10.13;77.61;99906.69;692527;28;1532;-62
2020/12/24 00:00:58;;;;;;;5.75;5.25;;;;;;;10.13;77.58;99912.06;692713;28;899;-63
2020/12/24 00:01:20;;;;;;;5.43;4.93;;;;;;;10.14;77.59;99905.66;692813;28;22401;-64
2020/12/24 00:01:41;;;;;;;5.55;5.05;;;;;;;10.14;77.59;99905.66;691478;28;44374;-64
2020/12/24 00:02:03;;;;;;;5.75;5.22;;;;;;;10.13;77.87;99905.84;691964;28;23479;-64
2020/12/24 00:02:24;;;;;;;5.50;5.00;;;;;;;10.13;77.94;99911.25;691786;28;44031;-63
2020/12/24 00:02:45;;;;;;;5.57;5.05;;;;;;;10.12;78.02;99905.00;692942;28;1443;-63
2020/12/24 00:03:07;;;;;;;5.63;5.13;;;;;;;10.13;77.83;99905.84;692323;28;22376;-66
2020/12/24 00:03:28;;;;;;;5.47;4.97;;;;;;;10.12;77.66;99909.56;691277;28;44406;-64
2020/12/24 00:03:49;;;;;;;5.50;5.03;;;;;;;10.13;77.57;99905.84;693121;28;23434;-63
2020/12/24 00:04:11;;;;;;;5.95;5.35;;;;;;;10.13;77.71;99911.25;692135;28;20272;-64
2020/12/24 00:04:32;;;;;;;5.40;4.90;;;;;;;10.11;77.89;99911.44;691766;28;40126;-65
2020/12/24 00:04:54;;;;;;;5.10;4.70;;;;;;;10.10;77.63;99901.66;692226;28;21566;-67
2020/12/24 00:05:15;;;;;;;5.28;4.82;;;;;;;10.12;77.61;99910.41;690490;28;46350;-64
2020/12/24 00:05:36;;;;;;;5.57;5.07;;;;;;;10.10;77.74;99907.88;692513;28;21552;-65
2020/12/24 00:05:58;;;;;;;5.43;4.93;;;;;;;10.12;77.62;99904.16;692291;28;22395;-64
2020/12/24 00:06:20;;;;;;;5.50;4.70;;;;;;;10.13;77.85;99895.06;692413;28;44162;-62
2020/12/24 00:06:41;;;;;;;5.95;4.80;;;;;;;10.11;77.55;99900.66;691540;28;44304;-63
2020/12/24 00:07:04;;;;;;;5.20;4.70;;;;;;;10.17;77.50;99917.91;693248;28;920;-63
2020/12/24 00:07:25;;;;;;;6.03;4.85;;;;;;;10.16;77.39;99909.00;690395;28;69327;-63
2020/12/24 00:07:46;;;;;;;5.63;4.80;;;;;;;10.17;77.51;99907.97;692153;28;21529;-62
2020/12/24 00:08:08;;;;;;;4.80;4.40;;;;;;;10.17;77.21;99915.22;691892;28;22564;-63
2020/12/24 00:08:29;;;;;;;4.95;4.50;;;;;;;10.18;77.23;99901.53;691325;28;44421;-63
2020/12/24 00:08:50;;;;;;;4.72;4.30;;;;;;;10.17;77.32;99905.28;693734;28;14166;-62
2020/12/24 00:09:12;;;;;;;4.78;4.30;;;;;;;10.16;77.17;99900.88;692225;28;22402;-63
2020/12/24 00:09:33;;;;;;;5.28;4.25;;;;;;;10.17;77.43;99904.41;692701;28;12346;-62
2020/12/24 00:09:55;;;;;;;4.90;4.50;;;;;;;10.18;77.33;99909.63;691489;28;45139;-63
2020/12/24 00:10:16;;;;;;;4.70;4.30;;;;;;;10.17;77.53;99907.97;691805;28;21523;-63
2020/12/24 00:10:37;;;;;;;4.90;4.40;;;;;;;10.18;77.52;99903.41;691533;28;33799;-63
2020/12/24 00:10:58;;;;;;;4.47;4.10;;;;;;;10.17;77.44;99907.97;692025;28;23437;-63
2020/12/24 00:11:20;;;;;;;4.65;4.20;;;;;;;10.17;77.35;99907.97;693044;28;21561;-64
2020/12/24 00:11:41;;;;;;;4.50;4.10;;;;;;;10.18;77.58;99909.63;691175;28;42120;-64
2020/12/24 00:12:03;;;;;;;4.57;4.28;;;;;;;10.19;77.29;99916.69;692319;28;11358;-64
2020/12/24 00:12:24;;;;;;;4.70;4.30;;;;;;;10.20;77.12;99914.81;691729;28;44222;-62
2020/12/24 00:13:19;;;;;;;4.70;4.30;;;;;;;10.21;76.96;99909.22;686820;28;128087;-63
2020/12/24 00:13:40;;;;;;;4.35;4.05;;;;;;;10.21;77.32;99903.84;691280;28;44119;-63
2020/12/24 00:14:01;;;;;;;5.18;4.25;;;;;;;10.21;76.90;99906.53;691977;28;22377;-65
2020/12/24 00:14:23;;;;;;;4.93;4.35;;;;;;;10.21;76.99;99906.53;691494;28;22428;-64
2020/12/24 00:14:44;;;;;;;4.53;4.13;;;;;;;10.24;77.04;99908.00;691504;28;21613;-62
2020/12/24 00:15:07;;;;;;;4.95;4.38;;;;;;;10.26;76.88;99912.16;690725;28;46420;-62
2020/12/24 00:15:28;;;;;;;4.38;4.07;;;;;;;10.25;76.77;99907.81;690869;28;45279;-60
2020/12/24 00:15:49;;;;;;;4.35;3.95;;;;;;;10.26;76.87;99909.47;691284;28;46341;-62
2020/12/24 00:16:10;;;;;;;4.72;4.22;;;;;;;10.27;76.78;99904.94;691881;28;22418;-64
2020/12/24 00:16:32;;;;;;;4.97;4.10;;;;;;;10.27;76.99;99908.44;691720;28;22479;-62
2020/12/24 00:16:53;;;;;;;4.45;4.05;;;;;;;10.26;77.13;99900.56;692272;28;17466;-63
2020/12/24 00:17:15;;;;;;;4.63;4.22;;;;;;;10.26;77.19;99904.06;691505;28;43014;-59
2020/12/24 00:17:36;;;;;;;4.22;3.90;;;;;;;10.26;76.88;99904.06;692300;28;21400;-60
2020/12/24 00:17:57;;;;;;;4.72;4.05;;;;;;;10.24;77.06;99899.91;691739;28;34171;-62
2020/12/24 00:18:19;;;;;;;4.82;4.32;;;;;;;10.24;77.15;99905.31;692040;28;22435;-63
2020/12/24 00:18:41;;;;;;;4.65;4.00;;;;;;;10.24;77.48;99908.00;690608;28;45123;-63
2020/12/24 00:19:02;;;;;;;4.32;3.88;;;;;;;10.23;77.15;99907.16;691936;28;23398;-61
2020/12/24 00:19:23;;;;;;;4.57;4.13;;;;;;;10.25;77.11;99896.16;690027;28;44426;-62
2020/12/24 00:19:45;;;;;;;4.43;4.03;;;;;;;10.25;77.24;99893.47;691616;28;22397;-65
2020/12/24 00:20:07;;;;;;;4.40;4.00;;;;;;;10.25;77.12;99906.97;692317;28;23394;-61
2020/12/24 00:20:28;;;;;;;4.53;3.97;;;;;;;10.25;77.05;99899.72;691498;28;45242;-61
2020/12/24 00:20:49;;;;;;;5.07;4.00;;;;;;;10.26;77.02;99897.84;691954;28;22401;-63
2020/12/24 00:21:10;;;;;;;4.70;4.30;;;;;;;10.26;77.01;99895.16;691206;28;46214;-61
2020/12/24 00:21:35;;;;;;;4.30;4.00;;;;;;;10.25;77.40;99890.78;692652;28;7622;-61
2020/12/24 00:21:57;;;;;;;4.57;4.18;;;;;;;10.24;77.45;99892.66;688200;28;113596;-64
2020/12/24 00:22:19;;;;;;;4.80;4.30;;;;;;;10.24;77.14;99891.81;692371;28;22117;-62
2020/12/24 00:22:40;;;;;;;5.07;4.20;;;;;;;10.25;77.31;99893.47;691066;28;45356;-61
2020/12/24 00:23:02;;;;;;;4.13;3.83;;;;;;;10.26;77.47;99887.06;691824;28;22374;-62
2020/12/24 00:23:23;;;;;;;4.20;3.90;;;;;;;10.25;77.52;99890.78;691349;28;44407;-63
2020/12/24 00:23:44;;;;;;;4.40;4.10;;;;;;;10.23;77.52;99887.44;691606;28;46604;-61
2020/12/24 00:24:06;;;;;;;4.68;4.28;;;;;;;10.23;77.29;99892.84;692350;28;22209;-62
2020/12/24 00:24:28;;;;;;;4.20;3.90;;;;;;;10.25;77.12;99893.47;692302;28;22394;-63
2020/12/24 00:24:49;;;;;;;4.30;3.85;;;;;;;10.23;77.40;99885.56;691466;28;43738;-63
2020/12/24 00:25:10;;;;;;;4.60;4.00;;;;;;;10.25;77.07;99893.47;692166;28;869;-60
2020/12/24 00:25:31;;;;;;;5.10;4.22;;;;;;;10.24;77.37;99886.44;691293;28;29912;-63
2020/12/24 00:25:53;;;;;;;5.45;4.15;;;;;;;10.25;77.27;99885.38;692574;28;9963;-61
2020/12/24 00:26:14;;;;;;;4.57;4.10;;;;;;;10.23;77.56;99899.06;691277;28;45083;-61
2020/12/24 00:26:36;;;;;;;4.45;4.05;;;;;;;10.24;77.35;99894.53;692231;28;22209;-62
2020/12/24 00:26:57;;;;;;;4.47;4.07;;;;;;;10.23;77.28;99895.53;691914;28;22541;-64
2020/12/24 00:27:18;;;;;;;4.60;4.20;;;;;;;10.22;77.35;99893.84;693150;28;22393;-60
2020/12/24 00:27:40;;;;;;;4.40;4.00;;;;;;;10.22;77.55;99899.25;694244;28;41844;-62
2020/12/24 00:28:01;;;;;;;4.53;4.13;;;;;;;10.22;77.64;99893.84;694463;28;34276;-63
2020/12/24 00:28:22;;;;;;;4.68;4.28;;;;;;;10.22;77.40;99900.13;694493;28;23387;-61
2020/12/24 00:28:44;;;;;;;4.20;3.67;;;;;;;10.22;77.55;99902.81;693380;28;36685;-63
2020/12/24 00:29:07;;;;;;;4.38;3.60;;;;;;;10.22;77.56;99897.41;691913;28;23516;-64
2020/12/24 00:29:28;;;;;;;4.22;3.83;;;;;;;10.22;77.42;99892.03;690712;28;67637;-59
2020/12/24 00:29:50;;;;;;;4.80;4.10;;;;;;;10.22;77.62;99901.97;694293;28;26008;-64
2020/12/24 00:30:11;;;;;;;4.45;3.70;;;;;;;10.22;77.64;99899.25;695249;28;3275;-63
2020/12/24 00:30:32;;;;;;;4.00;3.60;;;;;;;10.24;77.42;99895.34;692031;28;16267;-63
2020/12/24 00:30:54;;;;;;;4.35;3.50;;;;;;;10.25;77.10;99902.41;691999;28;22405;-63
2020/12/24 00:31:15;;;;;;;4.68;3.67;;;;;;;10.26;77.24;99900.56;687668;28;32595;-63
2020/12/24 00:31:37;;;;;;;3.67;3.40;;;;;;;10.24;77.39;99902.63;688733;28;4047;-62
2020/12/24 00:31:58;;;;;;;3.55;3.35;;;;;;;10.25;77.40;99901.56;686812;28;45376;-60
2020/12/24 00:32:20;;;;;;;3.92;3.63;;;;;;;10.26;77.35;99911.34;688859;28;23442;-65
2020/12/24 00:32:41;;;;;;;4.00;3.70;;;;;;;10.27;77.29;99913.03;690246;28;46323;-61
2020/12/24 00:33:02;;;;;;;4.10;3.80;;;;;;;10.26;77.31;99903.25;688508;28;17760;-62
2020/12/24 00:33:23;;;;;;;4.03;3.72;;;;;;;10.25;77.13;99905.13;691908;28;22170;-63
2020/12/24 00:33:45;;;;;;;4.13;3.72;;;;;;;10.25;77.46;99913.22;691344;28;46171;-62
2020/12/24 00:34:06;;;;;;;4.82;3.80;;;;;;;10.26;77.32;99906.78;692510;28;10901;-61
2020/12/24 00:34:28;;;;;;;4.22;3.80;;;;;;;10.26;77.34;99912.16;691381;28;46391;-63
2020/12/24 00:34:49;;;;;;;3.90;3.60;;;;;;;10.25;77.27;99906.97;692531;28;9460;-65
2020/12/24 00:35:10;;;;;;;3.83;3.53;;;;;;;10.26;77.18;99911.34;691976;28;1190;-63
2020/12/24 00:35:32;;;;;;;3.65;3.38;;;;;;;10.25;77.33;99906.97;691579;28;23336;-63
2020/12/24 00:35:53;;;;;;;3.80;3.50;;;;;;;10.26;77.46;99916.75;691288;28;45223;-64
2020/12/24 00:36:15;;;;;;;3.95;3.60;;;;;;;10.26;77.43;99917.56;692245;28;24530;-62
2020/12/24 00:36:36;;;;;;;4.05;3.75;;;;;;;10.28;77.37;99920.94;692320;28;22393;-63
2020/12/24 00:36:58;;;;;;;3.65;3.35;;;;;;;10.27;77.21;99915.72;692225;28;23574;-64
2020/12/24 00:37:20;;;;;;;3.70;3.40;;;;;;;10.27;77.41;99913.84;691438;28;45246;-63
2020/12/24 00:37:42;;;;;;;3.65;3.35;;;;;;;10.28;77.11;99911.97;691359;28;45064;-63
2020/12/24 00:38:03;;;;;;;3.80;3.50;;;;;;;10.28;77.11;99917.38;691535;28;44420;-62
2020/12/24 00:38:24;;;;;;;3.85;3.55;;;;;;;10.27;77.21;99907.63;692335;28;23465;-62
2020/12/24 00:38:46;;;;;;;3.65;3.38;;;;;;;10.28;77.19;99914.66;692339;28;21379;-63
2020/12/24 00:39:07;;;;;;;3.75;3.30;;;;;;;10.27;77.62;99910.31;691255;28;46345;-62
2020/12/24 00:39:28;;;;;;;3.38;3.08;;;;;;;10.29;77.16;99902.84;692407;28;22445;-62
2020/12/24 00:39:49;;;;;;;3.20;3.00;;;;;;;10.29;77.13;99909.06;692375;28;22418;-63
2020/12/24 00:40:11;;;;;;;3.95;3.13;;;;;;;10.31;77.01;99900.78;692745;28;1088;-61
2020/12/24 00:40:33;;;;;;;3.53;3.20;;;;;;;10.31;77.12;99905.38;691257;28;46338;-63
2020/12/24 00:40:54;;;;;;;3.60;3.38;;;;;;;10.29;77.12;99913.66;692365;28;21558;-64
2020/12/24 00:41:15;;;;;;;3.83;3.50;;;;;;;10.27;77.26;99905.75;691405;28;46606;-64
2020/12/24 00:41:36;;;;;;;3.90;3.50;;;;;;;10.27;77.59;99908.44;693111;28;922;-62
2020/12/24 00:41:58;;;;;;;3.30;3.10;;;;;;;10.27;77.55;99913.03;692058;28;22385;-62
2020/12/24 00:42:19;;;;;;;3.53;3.30;;;;;;;10.29;77.43;99908.25;691189;28;46419;-63
2020/12/24 00:42:41;;;;;;;3.65;3.38;;;;;;;10.29;77.48;99906.38;688950;28;25463;-62
2020/12/24 00:43:02;;;;;;;3.47;3.28;;;;;;;10.29;77.31;99906.38;688166;28;45237;-63
2020/12/24 00:43:23;;;;;;;3.40;3.20;;;;;;;10.30;77.19;99907.25;688927;28;23499;-62
2020/12/24 00:43:45;;;;;;;3.50;3.20;;;;;;;10.31;77.21;99902.66;689248;28;22399;-64
2020/12/24 00:44:06;;;;;;;3.33;3.03;;;;;;;10.32;77.34;99907.88;688623;28;44404;-66
2020/12/24 00:44:27;;;;;;;3.40;3.10;;;;;;;10.29;77.10;99910.94;690045;28;19653;-63
2020/12/24 00:44:50;;;;;;;3.40;3.20;;;;;;;10.29;77.22;99919.06;692867;28;928;-65
2020/12/24 00:45:11;;;;;;;3.70;2.90;;;;;;;10.32;77.10;99912.44;689339;28;51932;-61
2020/12/24 00:45:32;;;;;;;3.13;2.90;;;;;;;10.33;77.24;99906.03;691462;28;23495;-63
2020/12/24 00:45:54;;;;;;;3.00;2.80;;;;;;;10.32;77.09;99909.75;692030;28;15690;-65
2020/12/24 00:46:15;;;;;;;3.10;2.90;;;;;;;10.32;77.25;99910.56;691731;28;19717;-62
2020/12/24 00:46:37;;;;;;;3.45;3.10;;;;;;;10.32;77.22;99907.03;691385;28;45304;-63
2020/12/24 00:46:58;;;;;;;3.28;2.97;;;;;;;10.31;77.38;99908.88;691235;28;44207;-64
2020/12/24 00:47:19;;;;;;;3.10;2.90;;;;;;;10.31;77.36;99899.97;692060;28;22398;-62
2020/12/24 00:47:41;;;;;;;3.28;3.00;;;;;;;10.31;77.40;99911.59;692039;28;22254;-59
2020/12/24 00:48:02;;;;;;;3.00;2.80;;;;;;;10.33;77.47;99908.72;692225;28;12973;-64
2020/12/24 00:48:24;;;;;;;3.08;2.88;;;;;;;10.31;77.40;99908.88;690117;28;45320;-65
2020/12/24 00:48:45;;;;;;;3.22;2.95;;;;;;;10.32;77.19;99907.88;692168;28;22228;-62
2020/12/24 00:49:06;;;;;;;3.20;3.00;;;;;;;10.32;77.33;99910.56;691162;28;47283;-64
2020/12/24 00:49:28;;;;;;;3.00;2.80;;;;;;;10.32;77.38;99910.56;689203;28;22403;-65
2020/12/24 00:49:51;;;;;;;3.30;3.00;;;;;;;10.32;77.36;99913.25;689348;28;21517;-62
2020/12/24 00:50:12;;;;;;;3.60;3.30;;;;;;;10.33;77.41;99912.28;687659;28;90662;-62
2020/12/24 00:50:34;;;;;;;3.10;2.90;;;;;;;10.36;77.15;99914.59;692097;28;22385;-64
2020/12/24 00:50:56;;;;;;;2.90;2.70;;;;;;;10.37;76.82;99918.94;691271;28;44398;-60
2020/12/24 00:51:17;;;;;;;3.17;2.97;;;;;;;10.37;76.72;99908.13;692579;28;21324;-62
2020/12/24 00:51:38;;;;;;;3.10;2.90;;;;;;;10.38;77.10;99914.38;691651;28;22341;-63
2020/12/24 00:52:00;;;;;;;3.35;2.80;;;;;;;10.37;76.99;99913.53;690807;28;43353;-61
2020/12/24 00:52:22;;;;;;;4.82;2.75;;;;;;;10.36;76.91;99909.19;691221;28;45240;-62
2020/12/24 00:52:44;;;;;;;3.42;2.80;;;;;;;10.36;77.19;99909.19;690895;28;45271;-62
2020/12/24 00:53:05;;;;;;;2.97;2.78;;;;;;;10.34;77.14;99908.53;691245;28;21542;-62
2020/12/24 00:53:29;;;;;;;2.60;2.40;;;;;;;10.35;77.32;99904.81;687212;28;92265;-60
2020/12/24 00:53:50;;;;;;;3.40;2.70;;;;;;;10.35;77.17;99904.81;690460;28;21507;-63
2020/12/24 00:54:12;;;;;;;3.05;2.60;;;;;;;10.35;77.15;99909.38;688425;28;30653;-64
2020/12/24 00:54:33;;;;;;;2.55;2.35;;;;;;;10.37;77.02;99912.72;685573;28;45245;-62
2020/12/24 00:54:56;;;;;;;2.85;2.60;;;;;;;10.38;76.86;99909.00;683148;28;69248;-62
2020/12/24 00:55:18;;;;;;;3.05;2.45;;;;;;;10.37;77.07;99904.63;683694;28;23865;-64
2020/12/24 00:55:40;;;;;;;2.75;2.55;;;;;;;10.37;77.23;99907.31;685392;28;65647;-59
2020/12/24 00:56:01;;;;;;;2.80;2.60;;;;;;;10.37;77.00;99902.72;687219;28;21279;-62
2020/12/24 00:56:23;;;;;;;2.80;2.60;;;;;;;10.37;77.18;99908.13;688241;28;45259;-61
2020/12/24 00:56:59;;;;;;;2.55;2.35;;;;;;;10.41;77.21;99906.72;691711;28;138281;-64
2020/12/24 00:57:22;;;;;;;2.40;2.30;;;;;;;10.42;76.99;99907.53;689717;28;113949;-61
2020/12/24 00:57:44;;;;;;;2.40;2.30;;;;;;;10.41;76.95;99906.72;693224;28;23483;-61
2020/12/24 00:58:05;;;;;;;2.65;2.55;;;;;;;10.41;77.17;99900.50;690578;28;22232;-62
2020/12/24 00:58:29;;;;;;;2.55;2.45;;;;;;;10.42;77.08;99908.41;689370;28;90474;-62
2020/12/24 00:58:51;;;;;;;2.70;2.50;;;;;;;10.42;76.84;99899.44;692069;28;23418;-64
2020/12/24 00:59:13;;;;;;;2.70;2.30;;;;;;;10.41;76.98;99905.91;691039;28;46305;-63
2020/12/24 00:59:34;;;;;;;2.80;2.60;;;;;;;10.41;76.83;99908.59;688827;28;67461;-62
2020/12/24 00:59:56;;;;;;;2.80;2.63;;;;;;;10.40;76.80;99906.91;689113;28;20866;-62
2020/12/24 01:00:17;;;;;;;3.13;2.53;;;;;;;10.39;77.03;99906.09;688971;28;22359;-62
2020/12/24 01:00:39;;;;;;;3.92;2.40;;;;;;;10.39;77.25;99902.53;689000;28;30084;-63
2020/12/24 01:01:00;;;;;;;2.50;2.30;;;;;;;10.41;76.86;99904.03;689126;28;23908;-63
2020/12/24 01:01:21;;;;;;;2.58;2.20;;;;;;;10.41;76.73;99900.50;689795;28;22411;-62
2020/12/24 01:01:43;;;;;;;2.30;2.20;;;;;;;10.41;76.89;99905.91;691548;28;39326;-62
2020/12/24 01:02:04;;;;;;;2.20;2.10;;;;;;;10.40;77.17;99905.03;692308;28;12043;-62
2020/12/24 01:02:25;;;;;;;2.30;2.20;;;;;;;10.39;77.01;99906.09;691509;28;46107;-62
2020/12/24 01:02:47;;;;;;;2.05;1.95;;;;;;;10.40;77.11;99901.53;692282;28;24225;-63
2020/12/24 01:03:08;;;;;;;2.20;2.10;;;;;;;10.38;76.95;99893.63;691873;28;22223;-61
2020/12/24 01:03:29;;;;;;;2.42;2.22;;;;;;;10.38;77.02;99903.59;691985;28;21531;-62
2020/12/24 01:03:51;;;;;;;2.40;2.20;;;;;;;10.38;77.17;99903.59;691292;28;46369;-64
2020/12/24 01:04:12;;;;;;;2.30;2.20;;;;;;;10.38;77.13;99896.31;691183;28;46372;-64
2020/12/24 01:04:33;;;;;;;2.20;2.10;;;;;;;10.39;77.14;99900.69;692242;28;21565;-62
2020/12/24 01:04:55;;;;;;;2.10;2.00;;;;;;;10.41;77.16;99903.19;691331;28;46290;-62
2020/12/24 01:05:16;;;;;;;2.30;2.10;;;;;;;10.40;77.05;99907.75;693732;28;23486;-62
2020/12/24 01:05:38;;;;;;;2.08;1.98;;;;;;;10.42;76.86;99904.84;693273;28;45236;-62
2020/12/24 01:05:59;;;;;;;2.10;2.00;;;;;;;10.44;76.93;99898.22;694972;28;23454;-60
2020/12/24 01:06:20;;;;;;;1.98;1.88;;;;;;;10.44;76.57;99900.94;694301;28;21294;-64
2020/12/24 01:06:42;;;;;;;2.08;1.98;;;;;;;10.43;77.01;99888.44;694492;28;22397;-61
2020/12/24 01:07:03;;;;;;;1.90;1.80;;;;;;;10.42;76.83;99892.22;693189;28;45271;-63
2020/12/24 01:07:25;;;;;;;2.00;1.90;;;;;;;10.42;77.00;99899.44;692157;28;22406;-63
2020/12/24 01:07:47;;;;;;;2.40;2.20;;;;;;;10.42;77.22;99885.94;690688;28;68297;-64
2020/12/24 01:08:08;;;;;;;2.13;2.03;;;;;;;10.41;77.04;99890.53;692289;28;20404;-60
2020/12/24 01:08:30;;;;;;;2.10;2.00;;;;;;;10.40;76.99;99896.94;691926;28;22397;-62
2020/12/24 01:08:51;;;;;;;2.00;1.90;;;;;;;10.39;77.25;99887.19;691196;28;46380;-63
2020/12/24 01:09:12;;;;;;;2.17;2.03;;;;;;;10.38;77.03;99903.59;692200;28;21546;-63
2020/12/24 01:09:33;;;;;;;2.05;1.95;;;;;;;10.39;77.20;99910.63;692286;28;23534;-61
2020/12/24 01:09:55;;;;;;;2.00;1.90;;;;;;;10.38;77.28;99900.88;691449;28;45364;-63
2020/12/24 01:10:17;;;;;;;2.05;1.95;;;;;;;10.36;77.11;99898.38;692264;28;22992;-59
2020/12/24 01:10:38;;;;;;;1.90;1.80;;;;;;;10.37;77.01;99904.63;691469;28;46359;-61
2020/12/24 01:10:59;;;;;;;2.33;2.15;;;;;;;10.37;77.25;99907.31;691958;28;21536;-62
2020/12/24 01:11:25;;;;;;;2.38;2.28;;;;;;;10.36;77.39;99898.38;691999;28;22492;-64
2020/12/24 01:11:47;;;;;;;1.92;1.83;;;;;;;10.37;77.33;99905.44;688481;28;130145;-64
2020/12/24 01:12:09;;;;;;;1.98;1.88;;;;;;;10.35;76.99;99907.50;691981;28;21413;-65
2020/12/24 01:12:30;;;;;;;2.20;2.10;;;;;;;10.36;76.95;99906.50;691194;28;46534;-62
2020/12/24 01:12:51;;;;;;;1.90;1.80;;;;;;;10.33;76.99;99900.63;692023;28;21546;-63
2020/12/24 01:13:13;;;;;;;2.20;2.10;;;;;;;10.35;77.05;99909.38;691757;28;23467;-64
2020/12/24 01:13:34;;;;;;;2.30;2.10;;;;;;;10.35;77.15;99907.50;692067;28;46333;-64
2020/12/24 01:13:56;;;;;;;2.10;2.00;;;;;;;10.34;77.32;99905.81;692837;28;23435;-62
2020/12/24 01:14:17;;;;;;;2.05;1.95;;;;;;;10.34;77.45;99902.31;690955;28;45247;-62
2020/12/24 01:14:38;;;;;;;2.00;1.90;;;;;;;10.33;77.22;99906.03;691959;28;22375;-62
2020/12/24 01:15:00;;;;;;;2.00;1.90;;;;;;;10.33;77.47;99901.47;691991;28;22238;-64
2020/12/24 01:15:22;;;;;;;2.00;1.90;;;;;;;10.35;77.39;99893.19;691572;28;45263;-63
2020/12/24 01:15:43;;;;;;;2.72;2.20;;;;;;;10.35;77.35;99902.09;691147;28;66510;-61
2020/12/24 01:16:05;;;;;;;2.83;2.20;;;;;;;10.35;77.34;99894.00;692612;28;22404;-65
2020/12/24 01:16:26;;;;;;;2.08;1.98;;;;;;;10.35;77.08;99893.19;692108;28;46270;-60
2020/12/24 01:16:47;;;;;;;2.15;2.05;;;;;;;10.35;77.04;99890.50;692717;28;20675;-61
2020/12/24 01:17:09;;;;;;;2.10;1.90;;;;;;;10.35;76.93;99887.78;693131;28;993;-59
2020/12/24 01:17:30;;;;;;;2.80;2.05;;;;;;;10.35;77.09;99898.59;691696;28;45007;-62
2020/12/24 01:17:51;;;;;;;2.30;2.10;;;;;;;10.35;77.05;99893.19;692602;28;23397;-62
2020/12/24 01:18:13;;;;;;;2.10;2.00;;;;;;;10.33;77.29;99893.38;692937;28;14784;-64
2020/12/24 01:18:34;;;;;;;2.45;1.90;;;;;;;10.34;77.43;99891.50;691982;28;46322;-61
2020/12/24 01:18:56;;;;;;;2.17;1.90;;;;;;;10.34;77.23;99888.81;692644;28;22396;-61
2020/12/24 01:19:17;;;;;;;2.00;1.90;;;;;;;10.34;77.09;99891.50;690490;28;46347;-64
2020/12/24 01:19:38;;;;;;;1.98;1.88;;;;;;;10.33;77.17;99901.47;692075;28;23481;-62
2020/12/24 01:20:00;;;;;;;2.13;1.88;;;;;;;10.33;77.20;99906.03;692504;28;21555;-63
2020/12/24 01:20:21;;;;;;;2.15;1.98;;;;;;;10.32;77.42;99905.16;692437;28;21925;-64
2020/12/24 01:20:42;;;;;;;2.00;1.90;;;;;;;10.32;77.53;99902.47;692055;28;37911;-62
2020/12/24 01:21:06;;;;;;;2.00;1.90;;;;;;;10.32;77.11;99899.75;692625;28;23475;-61
2020/12/24 01:21:28;;;;;;;1.90;1.80;;;;;;;10.33;77.23;99906.88;690166;28;91775;-62
2020/12/24 01:21:50;;;;;;;2.08;1.98;;;;;;;10.33;77.25;99901.47;691672;28;46387;-62
2020/12/24 01:22:11;;;;;;;2.25;2.13;;;;;;;10.34;77.48;99896.91;692359;28;31857;-65
2020/12/24 01:22:33;;;;;;;1.92;1.83;;;;;;;10.33;77.34;99904.19;693126;28;11844;-61
2020/12/24 01:22:55;;;;;;;2.00;1.90;;;;;;;10.32;77.48;99905.16;691587;28;45924;-61
2020/12/24 01:23:16;;;;;;;1.95;1.85;;;;;;;10.31;77.69;99908.88;692772;28;22351;-62
2020/12/24 01:23:38;;;;;;;2.05;1.85;;;;;;;10.31;77.42;99914.28;691930;28;46404;-62
2020/12/24 01:23:59;;;;;;;2.00;1.90;;;;;;;10.31;77.71;99916.16;692871;28;22390;-64
2020/12/24 01:24:20;;;;;;;2.28;2.08;;;;;;;10.32;77.26;99910.56;691932;28;45247;-61
2020/12/24 01:24:42;;;;;;;1.92;1.83;;;;;;;10.31;77.42;99908.88;692754;28;22400;-63
2020/12/24 01:25:03;;;;;;;2.17;2.08;;;;;;;10.33;77.49;99914.13;691023;28;45082;-65
2020/12/24 01:25:24;;;;;;;2.15;2.05;;;;;;;10.31;77.48;99908.88;692472;28;23809;-62
2020/12/24 01:25:46;;;;;;;1.80;1.70;;;;;;;10.32;77.43;99910.56;691856;28;43598;-63
2020/12/24 01:26:07;;;;;;;2.00;1.90;;;;;;;10.31;77.40;99916.97;692993;28;15584;-62
2020/12/24 01:26:29;;;;;;;2.17;2.05;;;;;;;10.31;77.32;99914.28;688883;28;39490;-61
2020/12/24 01:26:50;;;;;;;1.98;1.88;;;;;;;10.29;77.27;99909.06;689855;28;22357;-60
2020/12/24 01:27:12;;;;;;;2.20;2.10;;;;;;;10.31;77.47;99911.59;689429;28;29894;-63
2020/12/24 01:27:33;;;;;;;2.03;1.92;;;;;;;10.31;77.39;99911.59;689933;28;11504;-61
2020/12/24 01:27:55;;;;;;;2.13;2.03;;;;;;;10.31;77.56;99916.97;689788;28;15446;-62
2020/12/24 01:28:16;;;;;;;2.28;2.00;;;;;;;10.31;77.34;99910.75;687598;28;22214;-62
2020/12/24 01:28:37;;;;;;;2.03;1.92;;;;;;;10.32;77.56;99910.56;689791;28;22487;-62
2020/12/24 01:28:58;;;;;;;1.80;1.70;;;;;;;10.33;77.15;99906.03;689050;28;46337;-62
2020/12/24 01:29:20;;;;;;;1.70;1.60;;;;;;;10.32;77.56;99909.75;689720;28;21664;-62
2020/12/24 01:29:41;;;;;;;2.10;1.90;;;;;;;10.31;77.57;99903.47;689113;28;45241;-64
2020/12/24 01:30:03;;;;;;;2.08;1.90;;;;;;;10.31;77.59;99898.09;690337;28;22377;-62
2020/12/24 01:30:24;;;;;;;1.75;1.67;;;;;;;10.32;77.24;99901.63;691694;28;44432;-62
2020/12/24 01:30:46;;;;;;;2.00;1.90;;;;;;;10.31;77.19;99903.47;692489;28;23561;-64
2020/12/24 01:31:07;;;;;;;1.92;1.83;;;;;;;10.31;77.23;99899.97;692084;28;38226;-64
2020/12/24 01:31:28;;;;;;;2.00;1.90;;;;;;;10.30;77.30;99904.53;692676;28;22402;-62
2020/12/24 01:31:50;;;;;;;2.00;1.90;;;;;;;10.29;77.53;99894.75;692455;28;22520;-62
2020/12/24 01:32:12;;;;;;;2.20;1.80;;;;;;;10.28;77.45;99899.34;691654;28;43811;-63
2020/12/24 01:32:33;;;;;;;1.80;1.70;;;;;;;10.29;77.42;99900.97;692359;28;22487;-61
2020/12/24 01:32:55;;;;;;;1.90;1.80;;;;;;;10.30;77.43;99896.44;692135;28;32663;-63
2020/12/24 01:33:16;;;;;;;2.10;1.90;;;;;;;10.31;77.36;99895.38;692597;28;22224;-63
2020/12/24 01:33:37;;;;;;;2.00;1.90;;;;;;;10.31;77.22;99898.09;692733;28;23222;-62
2020/12/24 01:33:58;;;;;;;2.03;1.92;;;;;;;10.31;77.48;99898.09;692067;28;44397;-62
2020/12/24 01:34:20;;;;;;;1.90;1.80;;;;;;;10.30;77.16;99896.44;692692;28;22390;-64
2020/12/24 01:34:41;;;;;;;2.00;1.90;;;;;;;10.31;77.22;99908.88;692022;28;45273;-65
2020/12/24 01:35:03;;;;;;;1.98;1.88;;;;;;;10.31;77.15;99899.97;692197;28;22399;-61
2020/12/24 01:35:24;;;;;;;2.17;2.08;;;;;;;10.30;77.25;99899.13;691485;28;46169;-62
2020/12/24 01:35:46;;;;;;;2.10;2.00;;;;;;;10.30;77.35;99901.84;692142;28;22391;-64
2020/12/24 01:36:08;;;;;;;1.75;1.70;;;;;;;10.32;77.44;99897.06;692808;28;22398;-63
2020/12/24 01:36:29;;;;;;;1.50;1.50;;;;;;;10.31;77.45;99900.78;691924;28;45504;-62
2020/12/24 01:36:50;;;;;;;1.70;1.60;;;;;;;10.31;77.14;99899.97;692870;28;21537;-62
2020/12/24 01:37:11;;;;;;;1.88;1.77;;;;;;;10.29;77.29;99892.88;692708;28;22403;-63
2020/12/24 01:37:35;;;;;;;2.00;1.90;;;;;;;10.28;77.64;99890.38;691787;28;46264;-63
2020/12/24 01:37:56;;;;;;;2.00;1.90;;;;;;;10.27;77.64;99900.34;691175;28;69547;-63
2020/12/24 01:38:17;;;;;;;1.95;1.85;;;;;;;10.29;77.73;99894.75;692770;28;23412;-63
2020/12/24 01:38:39;;;;;;;1.90;1.80;;;;;;;10.28;77.56;99893.94;692699;28;23846;-63
2020/12/24 01:39:01;;;;;;;1.80;1.70;;;;;;;10.29;77.36;99892.88;690970;28;69439;-63
2020/12/24 01:39:22;;;;;;;2.10;1.90;;;;;;;10.29;77.44;99890.19;691743;28;46420;-63
2020/12/24 01:39:44;;;;;;;2.28;2.15;;;;;;;10.29;77.82;99894.75;692805;28;19429;-65
2020/12/24 01:40:05;;;;;;;2.20;2.10;;;;;;;10.28;77.50;99887.69;692742;28;22180;-63
2020/12/24 01:40:26;;;;;;;2.08;1.95;;;;;;;10.31;77.69;99886.47;692776;28;22411;-65
2020/12/24 01:40:48;;;;;;;1.80;1.70;;;;;;;10.29;77.72;99897.47;691557;28;45260;-62
2020/12/24 01:41:09;;;;;;;1.80;1.70;;;;;;;10.32;77.45;99896.25;691416;28;21518;-62
2020/12/24 01:41:31;;;;;;;1.77;1.70;;;;;;;10.33;77.56;99895.22;691714;28;45182;-63
2020/12/24 01:41:52;;;;;;;2.13;1.92;;;;;;;10.33;77.24;99885.28;692037;28;22418;-64
2020/12/24 01:42:17;;;;;;;1.95;1.85;;;;;;;10.33;77.44;99890.69;693188;28;11126;-62
2020/12/24 01:42:38;;;;;;;1.90;1.80;;;;;;;10.31;77.49;99887.28;688772;28;138081;-62
2020/12/24 01:43:00;;;;;;;1.95;1.70;;;;;;;10.31;77.28;99886.47;691984;28;46651;-63
2020/12/24 01:43:21;;;;;;;1.85;1.75;;;;;;;10.30;77.35;99882.94;692636;28;24212;-62